createdAt,value
2017-08-07T00:01:48.275Z,73.05
2017-08-07T00:04:16.632Z,74.08
2017-08-07T00:06:45.794Z,73.70
2017-08-07T00:09:14.760Z,73.21
2017-08-07T00:11:43.133Z,73.40
2017-08-07T00:14:11.509Z,73.93
2017-08-07T00:16:40.146Z,74.09
2017-08-07T00:19:08.585Z,73.27
2017-08-07T00:21:36.951Z,73.12
2017-08-07T00:24:05.830Z,73.77
2017-08-07T00:26:34.191Z,73.77
2017-08-07T00:29:03.312Z,73.58
2017-08-07T00:31:31.951Z,73.04
2017-08-07T00:34:00.300Z,72.91
2017-08-07T00:36:28.658Z,73.27
2017-08-07T00:38:57.272Z,72.46
2017-08-07T00:41:25.624Z,72.39
2017-08-07T00:43:53.983Z,72.09
2017-08-07T00:46:22.716Z,72.98
2017-08-07T00:48:51.104Z,74.01
2017-08-07T00:51:19.504Z,73.75
2017-08-07T00:53:48.233Z,74.34
2017-08-07T00:56:16.595Z,74.30
2017-08-07T00:58:44.944Z,74.09
2017-08-07T01:01:13.878Z,72.87
2017-08-07T01:03:42.225Z,72.49
2017-08-07T01:06:10.617Z,73.01
2017-08-07T01:08:39.475Z,73.33
2017-08-07T01:11:07.871Z,73.68
2017-08-07T01:13:36.254Z,73.20
2017-08-07T01:16:05.185Z,72.96
2017-08-07T01:18:33.580Z,73.93
2017-08-07T01:21:01.959Z,73.64
2017-08-07T01:23:30.637Z,74.14
2017-08-07T01:25:58.996Z,73.91
2017-08-07T01:28:27.335Z,73.49
2017-08-07T01:30:56.269Z,74.03
2017-08-07T01:33:24.613Z,74.46
2017-08-07T01:35:53.796Z,73.92
2017-08-07T01:38:22.482Z,74.03
2017-08-07T01:40:50.880Z,74.54
2017-08-07T01:43:19.234Z,74.41
2017-08-07T01:45:48.190Z,74.35
2017-08-07T01:48:16.559Z,75.24
2017-08-07T01:50:44.905Z,75.28
2017-08-07T01:53:13.850Z,75.57
2017-08-07T01:55:42.210Z,75.22
2017-08-07T01:58:10.559Z,74.88
2017-08-07T02:00:39.463Z,75.70
2017-08-07T02:03:07.868Z,75.24
2017-08-07T02:05:36.219Z,75.09
2017-08-07T02:08:04.854Z,74.29
2017-08-07T02:10:33.627Z,74.80
2017-08-07T02:13:01.998Z,74.46
2017-08-07T02:15:31.399Z,74.41
2017-08-07T02:17:59.751Z,74.49
2017-08-07T02:20:28.118Z,75.09
2017-08-07T02:22:56.783Z,75.58
2017-08-07T02:25:25.180Z,75.02
2017-08-07T02:27:53.564Z,74.70
2017-08-07T02:30:22.238Z,74.84
2017-08-07T02:32:50.664Z,75.17
2017-08-07T02:35:19.016Z,74.68
2017-08-07T02:37:47.937Z,74.77
2017-08-07T02:40:16.310Z,74.76
2017-08-07T02:42:44.672Z,75.64
2017-08-07T02:45:13.398Z,76.55
2017-08-07T02:47:41.747Z,76.45
2017-08-07T02:50:10.103Z,76.42
2017-08-07T02:52:38.869Z,76.30
2017-08-07T02:55:07.253Z,76.16
2017-08-07T02:57:35.594Z,76.90
2017-08-07T03:00:04.488Z,76.61
2017-08-07T03:02:32.837Z,76.64
2017-08-07T03:05:01.999Z,76.19
2017-08-07T03:07:30.977Z,76.67
2017-08-07T03:09:59.337Z,76.76
2017-08-07T03:12:27.876Z,77.47
2017-08-07T03:14:56.606Z,76.96
2017-08-07T03:17:24.947Z,77.54
2017-08-07T03:19:54.072Z,77.41
2017-08-07T03:22:22.754Z,78.02
2017-08-07T03:24:51.102Z,78.42
2017-08-07T03:27:19.451Z,77.87
2017-08-07T03:29:48.139Z,77.04
2017-08-07T03:32:16.500Z,77.76
2017-08-07T03:34:44.845Z,77.14
2017-08-07T03:37:13.507Z,77.26
2017-08-07T03:39:41.876Z,77.21
2017-08-07T03:42:10.229Z,77.35
2017-08-07T03:44:39.194Z,77.00
2017-08-07T03:47:07.540Z,77.06
2017-08-07T03:49:35.891Z,77.93
2017-08-07T03:52:04.538Z,77.59
2017-08-07T03:54:32.896Z,78.43
2017-08-07T03:57:01.262Z,78.31
2017-08-07T03:59:30.089Z,77.83
2017-08-07T04:01:58.446Z,77.40
2017-08-07T04:04:27.560Z,76.30
2017-08-07T04:06:56.343Z,76.17
2017-08-07T04:09:24.690Z,76.76
2017-08-07T04:11:53.013Z,76.79
2017-08-07T04:14:21.799Z,76.69
2017-08-07T04:16:50.135Z,76.65
2017-08-07T04:19:18.488Z,77.05
2017-08-07T04:21:47.248Z,76.77
2017-08-07T04:24:15.653Z,77.06
2017-08-07T04:26:43.996Z,77.13
2017-08-07T04:29:12.902Z,78.16
2017-08-07T04:31:41.248Z,77.49
2017-08-07T04:34:10.357Z,76.93
2017-08-07T04:36:39.153Z,76.76
2017-08-07T04:39:07.521Z,76.71
2017-08-07T04:41:36.699Z,76.44
2017-08-07T04:44:05.670Z,75.79
2017-08-07T04:46:34.045Z,75.29
2017-08-07T04:49:02.391Z,74.99
2017-08-07T04:51:31.113Z,74.79
2017-08-07T04:53:59.538Z,75.19
2017-08-07T04:56:27.909Z,74.71
2017-08-07T04:58:56.680Z,74.18
2017-08-07T05:01:25.037Z,74.14
2017-08-07T05:03:53.439Z,73.41
2017-08-07T05:06:22.184Z,72.55
2017-08-07T05:08:50.521Z,73.94
2017-08-07T05:11:18.874Z,73.37
2017-08-07T05:13:47.643Z,73.15
2017-08-07T05:16:16.024Z,72.54
2017-08-07T05:18:44.475Z,73.50
2017-08-07T05:21:13.239Z,73.01
2017-08-07T05:23:41.637Z,72.39
2017-08-07T05:26:10.007Z,72.93
2017-08-07T05:28:38.707Z,72.38
2017-08-07T05:31:07.158Z,72.20
2017-08-07T05:33:35.712Z,72.30
2017-08-07T05:36:04.432Z,72.09
2017-08-07T05:38:32.790Z,72.17
2017-08-07T05:41:01.201Z,71.19
2017-08-07T05:43:30.052Z,71.29
2017-08-07T05:45:58.422Z,71.22
2017-08-07T05:48:26.770Z,70.44
2017-08-07T05:50:55.507Z,69.87
2017-08-07T05:53:23.886Z,70.19
2017-08-07T05:55:52.252Z,70.96
2017-08-07T05:58:21.110Z,69.92
2017-08-07T06:00:49.463Z,70.43
2017-08-07T06:03:18.589Z,70.42
2017-08-07T06:05:47.213Z,70.11
2017-08-07T06:08:15.590Z,69.54
2017-08-07T06:10:43.976Z,69.50
2017-08-07T06:13:12.652Z,68.50
2017-08-07T06:15:41.071Z,67.87
2017-08-07T06:18:09.492Z,68.17
2017-08-07T06:20:38.428Z,67.52
2017-08-07T06:23:06.783Z,67.52
2017-08-07T06:25:35.170Z,67.63
2017-08-07T06:28:03.866Z,66.69
2017-08-07T06:30:32.199Z,67.08
2017-08-07T06:33:00.588Z,65.60
2017-08-07T06:35:29.367Z,65.14
2017-08-07T06:37:57.722Z,65.76
2017-08-07T06:40:26.850Z,65.45
2017-08-07T06:42:55.859Z,63.84
2017-08-07T06:45:24.241Z,63.31
2017-08-07T06:47:52.622Z,63.91
2017-08-07T06:50:21.354Z,64.18
2017-08-07T06:52:49.773Z,63.59
2017-08-07T06:55:18.162Z,64.06
2017-08-07T06:57:46.822Z,63.50
2017-08-07T07:00:15.205Z,63.11
2017-08-07T07:02:43.545Z,62.63
2017-08-07T07:05:12.331Z,62.62
2017-08-07T07:07:40.747Z,61.61
2017-08-07T07:10:09.197Z,61.06
2017-08-07T07:12:37.908Z,59.89
2017-08-07T07:15:06.312Z,58.95
2017-08-07T07:17:34.728Z,60.16
2017-08-07T07:20:03.351Z,59.43
2017-08-07T07:22:31.729Z,58.85
2017-08-07T07:25:00.121Z,58.68
2017-08-07T07:27:28.835Z,57.64
2017-08-07T07:29:57.423Z,57.42
2017-08-07T07:32:25.858Z,56.91
2017-08-07T07:34:54.529Z,54.02
2017-08-07T07:37:22.924Z,55.35
2017-08-07T07:39:51.329Z,54.65
2017-08-07T07:42:20.210Z,54.00
2017-08-07T07:44:48.594Z,54.46
2017-08-07T07:47:16.999Z,52.93
2017-08-07T07:49:45.761Z,52.75
2017-08-07T07:52:14.182Z,52.23
2017-08-07T07:54:42.765Z,51.63
2017-08-07T07:57:11.544Z,51.58
2017-08-07T07:59:39.917Z,51.11
2017-08-07T08:02:08.282Z,50.37
2017-08-07T08:04:37.025Z,50.19
2017-08-07T08:07:06.140Z,49.70
2017-08-07T08:09:34.527Z,48.20
2017-08-07T08:12:03.807Z,48.12
2017-08-07T08:14:32.225Z,46.64
2017-08-07T08:17:00.621Z,47.76
2017-08-07T08:19:29.286Z,47.48
2017-08-07T08:21:57.735Z,46.92
2017-08-07T08:24:26.179Z,45.72
2017-08-07T08:26:54.866Z,45.58
2017-08-07T08:29:23.260Z,45.52
2017-08-07T08:31:51.626Z,45.64
2017-08-07T08:34:20.896Z,44.75
2017-08-07T08:36:49.354Z,43.02
2017-08-07T08:39:17.732Z,43.75
2017-08-07T08:41:46.502Z,43.89
2017-08-07T08:44:14.874Z,43.86
2017-08-07T08:46:43.545Z,43.09
2017-08-07T08:49:13.527Z,42.83
2017-08-07T08:51:42.577Z,42.48
2017-08-07T08:54:11.249Z,42.38
2017-08-07T08:56:40.298Z,41.79
2017-08-07T08:59:09.603Z,40.90
2017-08-07T09:01:37.986Z,40.37
2017-08-07T09:04:06.881Z,40.20
2017-08-07T09:06:35.264Z,38.60
2017-08-07T09:09:03.674Z,39.47
2017-08-07T09:11:32.541Z,39.45
2017-08-07T09:14:00.914Z,38.45
2017-08-07T09:16:29.283Z,38.34
2017-08-07T09:18:58.083Z,38.84
2017-08-07T09:21:26.430Z,38.85
2017-08-07T09:23:54.786Z,38.41
2017-08-07T09:26:23.553Z,36.50
2017-08-07T09:28:51.924Z,36.16
2017-08-07T09:31:20.304Z,36.10
2017-08-07T09:33:48.987Z,34.99
2017-08-07T09:36:17.368Z,33.77
2017-08-07T09:38:45.746Z,33.83
2017-08-07T09:41:15.045Z,34.54
2017-08-07T09:43:43.423Z,34.45
2017-08-07T09:46:11.811Z,34.57
2017-08-07T09:48:40.775Z,33.64
2017-08-07T09:51:09.173Z,33.73
2017-08-07T09:53:37.520Z,32.52
2017-08-07T09:56:06.415Z,32.57
2017-08-07T09:58:34.838Z,31.66
2017-08-07T10:01:03.227Z,32.55
2017-08-07T10:03:32.021Z,32.61
2017-08-07T10:06:00.412Z,32.45
2017-08-07T10:08:29.589Z,31.50
2017-08-07T10:10:58.288Z,30.96
2017-08-07T10:13:26.672Z,30.97
2017-08-07T10:15:55.060Z,30.23
2017-08-07T10:18:23.793Z,29.92
2017-08-07T10:20:52.174Z,31.36
2017-08-07T10:23:20.554Z,29.56
2017-08-07T10:25:49.532Z,30.92
2017-08-07T10:28:17.943Z,30.71
2017-08-07T10:30:46.312Z,29.26
2017-08-07T10:33:15.036Z,30.20
2017-08-07T10:35:43.440Z,28.84
2017-08-07T10:38:12.591Z,29.88
2017-08-07T10:40:41.345Z,27.95
2017-08-07T10:43:09.754Z,27.50
2017-08-07T10:45:38.095Z,28.21
2017-08-07T10:48:13.455Z,27.88
2017-08-07T10:50:41.819Z,28.74
2017-08-07T10:53:10.196Z,28.60
2017-08-07T10:55:38.979Z,29.88
2017-08-07T10:58:07.364Z,29.34
2017-08-07T11:00:35.743Z,29.07
2017-08-07T11:03:04.501Z,28.83
2017-08-07T11:05:33.645Z,27.69
2017-08-07T11:08:02.006Z,26.88
2017-08-07T11:10:30.684Z,27.48
2017-08-07T11:12:58.997Z,27.79
2017-08-07T11:15:27.351Z,28.99
2017-08-07T11:17:56.004Z,28.41
2017-08-07T11:20:24.356Z,28.22
2017-08-07T11:22:52.746Z,27.16
2017-08-07T11:25:21.378Z,26.54
2017-08-07T11:27:49.731Z,27.48
2017-08-07T11:30:18.074Z,26.42
2017-08-07T11:32:47.242Z,26.42
2017-08-07T11:35:15.623Z,25.70
2017-08-07T11:37:43.981Z,25.27
2017-08-07T11:40:12.871Z,25.85
2017-08-07T11:42:41.247Z,27.65
2017-08-07T11:45:10.360Z,28.29
2017-08-07T11:47:39.033Z,27.94
2017-08-07T11:50:07.451Z,27.07
2017-08-07T11:52:35.812Z,27.10
2017-08-07T11:55:04.630Z,26.62
2017-08-07T11:57:33.020Z,26.71
2017-08-07T12:00:01.408Z,26.07
2017-08-07T12:02:30.035Z,25.70
2017-08-07T12:04:58.371Z,25.95
2017-08-07T12:07:26.712Z,26.68
2017-08-07T12:09:55.466Z,26.88
2017-08-07T12:12:23.839Z,27.42
2017-08-07T12:14:52.981Z,26.91
2017-08-07T12:17:21.683Z,27.28
2017-08-07T12:19:50.065Z,27.35
2017-08-07T12:22:18.434Z,28.01
2017-08-07T12:24:47.160Z,28.30
2017-08-07T12:27:15.555Z,27.96
2017-08-07T12:29:43.919Z,28.71
2017-08-07T12:32:12.614Z,28.74
2017-08-07T12:34:40.981Z,27.53
2017-08-07T12:37:09.424Z,27.79
2017-08-07T12:39:38.316Z,26.59
2017-08-07T12:42:06.666Z,27.51
2017-08-07T12:44:35.023Z,27.17
2017-08-07T12:47:03.657Z,27.02
2017-08-07T12:49:32.024Z,26.81
2017-08-07T12:52:00.469Z,26.40
2017-08-07T12:54:29.393Z,26.30
2017-08-07T12:56:57.765Z,26.61
2017-08-07T12:59:26.115Z,26.89
2017-08-07T13:01:55.027Z,26.14
2017-08-07T13:04:23.383Z,25.98
2017-08-07T13:06:52.525Z,26.39
2017-08-07T13:09:21.240Z,28.09
2017-08-07T13:11:49.597Z,27.57
2017-08-07T13:14:17.954Z,26.86
2017-08-07T13:16:46.959Z,26.45
2017-08-07T13:19:15.358Z,26.19
2017-08-07T13:21:43.723Z,26.40
2017-08-07T13:24:12.605Z,26.83
2017-08-07T13:26:40.967Z,26.42
2017-08-07T13:29:09.318Z,26.72
2017-08-07T13:31:38.188Z,26.67
2017-08-07T13:34:06.538Z,26.64
2017-08-07T13:36:34.881Z,27.63
2017-08-07T13:39:04.298Z,27.75
2017-08-07T13:41:32.676Z,28.07
2017-08-07T13:44:01.035Z,27.69
2017-08-07T13:46:29.803Z,27.04
2017-08-07T13:48:58.200Z,27.88
2017-08-07T13:51:26.593Z,28.43
2017-08-07T13:53:55.299Z,28.59
2017-08-07T13:56:23.677Z,28.91
2017-08-07T13:58:52.046Z,29.30
2017-08-07T14:01:20.743Z,28.84
2017-08-07T14:03:49.106Z,29.63
2017-08-07T14:06:17.495Z,28.65
2017-08-07T14:08:46.530Z,26.96
2017-08-07T14:11:14.908Z,26.12
2017-08-07T14:13:43.266Z,26.28
2017-08-07T14:16:11.950Z,26.17
2017-08-07T14:18:40.301Z,27.05
2017-08-07T14:21:08.638Z,27.68
2017-08-07T14:23:37.378Z,27.94
2017-08-07T14:26:05.752Z,27.61
2017-08-07T14:28:34.106Z,27.30
2017-08-07T14:31:03.085Z,27.41
2017-08-07T14:33:31.455Z,27.54
2017-08-07T14:35:59.821Z,27.51
2017-08-07T14:38:28.429Z,27.52
2017-08-07T14:40:56.774Z,28.39
2017-08-07T14:43:25.149Z,27.91
2017-08-07T14:45:53.939Z,26.50
2017-08-07T14:48:22.345Z,27.58
2017-08-07T14:50:50.736Z,28.56
2017-08-07T14:53:19.460Z,27.37
2017-08-07T14:55:48.653Z,28.26
2017-08-07T14:58:17.088Z,28.07
2017-08-07T15:00:46.025Z,27.95
2017-08-07T15:03:14.378Z,28.28
2017-08-07T15:05:42.760Z,28.41
2017-08-07T15:08:11.721Z,27.81
2017-08-07T15:10:40.078Z,27.70
2017-08-07T15:13:08.458Z,28.23
2017-08-07T15:15:37.359Z,28.61
2017-08-07T15:18:05.708Z,27.84
2017-08-07T15:20:34.087Z,26.60
2017-08-07T15:23:02.804Z,27.17
2017-08-07T15:25:31.156Z,28.14
2017-08-07T15:27:59.547Z,28.62
2017-08-07T15:30:28.237Z,28.44
2017-08-07T15:32:56.608Z,28.05
2017-08-07T15:35:25.017Z,28.06
2017-08-07T15:37:54.111Z,28.07
2017-08-07T15:40:22.493Z,27.85
2017-08-07T15:42:50.864Z,27.79
2017-08-07T15:45:19.583Z,27.62
2017-08-07T15:47:47.944Z,27.84
2017-08-07T15:50:16.293Z,27.60
2017-08-07T15:52:45.173Z,27.71
2017-08-07T15:55:13.501Z,27.68
2017-08-07T15:57:41.863Z,27.18
2017-08-07T16:00:10.884Z,27.45
2017-08-07T16:02:39.282Z,26.89
2017-08-07T16:05:07.687Z,27.26
2017-08-07T16:07:36.392Z,26.79
2017-08-07T16:10:04.776Z,27.03
2017-08-07T16:12:33.135Z,26.69
2017-08-07T16:15:01.756Z,26.55
2017-08-07T16:17:30.140Z,26.69
2017-08-07T16:19:58.541Z,26.77
2017-08-07T16:22:27.247Z,27.63
2017-08-07T16:24:55.606Z,28.13
2017-08-07T16:27:23.984Z,28.31
2017-08-07T16:30:02.419Z,27.83
2017-08-07T16:32:30.857Z,27.80
2017-08-07T16:34:59.234Z,28.18
2017-08-07T16:37:28.281Z,28.50
2017-08-07T16:39:56.715Z,28.85
2017-08-07T16:42:25.074Z,28.07
2017-08-07T16:44:53.922Z,27.61
2017-08-07T16:47:22.272Z,28.09
2017-08-07T16:49:50.643Z,27.92
2017-08-07T16:52:19.333Z,27.79
2017-08-07T16:54:47.681Z,27.49
2017-08-07T16:57:16.051Z,28.89
2017-08-07T16:59:45.282Z,28.72
2017-08-07T17:02:13.660Z,28.63
2017-08-07T17:04:42.046Z,28.46
2017-08-07T17:07:10.914Z,28.42
2017-08-07T17:09:39.277Z,27.90
2017-08-07T17:12:07.653Z,27.79
2017-08-07T17:14:36.422Z,28.40
2017-08-07T17:17:05.551Z,27.99
2017-08-07T17:19:33.897Z,27.94
2017-08-07T17:22:02.582Z,28.17
2017-08-07T17:24:30.924Z,28.33
2017-08-07T17:26:59.292Z,28.38
2017-08-07T17:29:28.002Z,28.79
2017-08-07T17:31:56.343Z,28.77
2017-08-07T17:34:24.688Z,28.99
2017-08-07T17:36:53.457Z,29.52
2017-08-07T17:39:21.801Z,29.53
2017-08-07T17:41:50.143Z,29.69
2017-08-07T17:44:19.186Z,29.85
2017-08-07T17:46:47.546Z,29.88
2017-08-07T17:49:15.916Z,30.03
2017-08-07T17:51:44.791Z,29.77
2017-08-07T17:54:13.166Z,30.02
2017-08-07T17:56:42.401Z,29.81
2017-08-07T17:59:11.029Z,29.44
2017-08-07T18:01:39.392Z,29.73
2017-08-07T18:04:07.748Z,30.52
2017-08-07T18:06:36.456Z,30.35
2017-08-07T18:09:04.805Z,30.27
2017-08-07T18:11:33.151Z,30.62
2017-08-07T18:14:02.795Z,30.80
2017-08-07T18:16:31.162Z,30.75
2017-08-07T18:18:59.502Z,30.50
2017-08-07T18:21:28.242Z,30.51
2017-08-07T18:23:56.595Z,30.47
2017-08-07T18:26:24.967Z,30.76
2017-08-07T18:28:53.696Z,31.32
2017-08-07T18:31:22.046Z,32.27
2017-08-07T18:33:50.395Z,32.40
2017-08-07T18:36:19.333Z,32.98
2017-08-07T18:38:47.745Z,33.71
2017-08-07T18:41:16.100Z,34.49
2017-08-07T18:43:44.996Z,34.86
2017-08-07T18:46:13.361Z,35.49
2017-08-07T18:48:41.733Z,36.17
2017-08-07T18:51:10.612Z,36.43
2017-08-07T18:53:38.949Z,35.31
2017-08-07T18:56:07.321Z,34.56
2017-08-07T18:58:36.039Z,36.43
2017-08-07T19:01:08.690Z,37.60
2017-08-07T19:03:47.272Z,38.88
2017-08-07T19:06:15.639Z,38.90
2017-08-07T19:08:44.079Z,39.60
2017-08-07T19:11:12.824Z,39.54
2017-08-07T19:13:41.196Z,40.02
2017-08-07T19:16:09.596Z,40.89
2017-08-07T19:18:38.480Z,41.60
2017-08-07T19:21:06.833Z,42.58
2017-08-07T19:23:35.245Z,43.15
2017-08-07T19:26:03.887Z,44.23
2017-08-07T19:28:32.290Z,45.40
2017-08-07T19:31:00.670Z,46.05
2017-08-07T19:33:29.604Z,46.99
2017-08-07T19:35:57.948Z,47.35
2017-08-07T19:38:26.351Z,48.17
2017-08-07T19:40:55.018Z,48.74
2017-08-07T19:43:23.378Z,48.97
2017-08-07T19:45:56.981Z,50.05
2017-08-07T19:48:26.308Z,50.55
2017-08-07T19:50:54.706Z,50.38
2017-08-07T19:53:23.584Z,50.63
2017-08-07T19:55:51.936Z,50.98
2017-08-07T19:58:20.299Z,51.49
2017-08-07T20:00:48.965Z,51.53
2017-08-07T20:03:17.355Z,51.79
2017-08-07T20:05:45.758Z,52.55
2017-08-07T20:08:14.645Z,52.63
2017-08-07T20:10:43.003Z,53.17
2017-08-07T20:13:12.120Z,54.03
2017-08-07T20:15:40.861Z,54.36
2017-08-07T20:18:09.264Z,54.21
2017-08-07T20:20:37.691Z,54.48
2017-08-07T20:23:06.581Z,54.83
2017-08-07T20:25:34.930Z,55.34
2017-08-07T20:28:04.073Z,55.54
2017-08-07T20:30:32.862Z,56.14
2017-08-07T20:33:01.269Z,56.90
2017-08-07T20:35:29.652Z,57.04
2017-08-07T20:37:58.503Z,57.58
2017-08-07T20:40:26.872Z,57.31
2017-08-07T20:42:55.300Z,56.51
2017-08-07T20:45:24.959Z,56.57
2017-08-07T20:47:53.338Z,57.47
2017-08-07T20:50:21.766Z,57.77
2017-08-07T20:52:50.627Z,57.97
2017-08-07T20:55:18.994Z,58.11
2017-08-07T20:57:47.390Z,58.98
2017-08-07T21:00:16.222Z,58.36
2017-08-07T21:02:44.619Z,58.60
2017-08-07T21:05:13.021Z,59.01
2017-08-07T21:07:41.925Z,58.83
2017-08-07T21:10:10.264Z,59.46
2017-08-07T21:12:38.658Z,59.74
2017-08-07T21:15:07.404Z,60.22
2017-08-07T21:17:35.844Z,60.42
2017-08-07T21:20:04.256Z,60.45
2017-08-07T21:22:33.242Z,61.04
2017-08-07T21:25:01.632Z,61.21
2017-08-07T21:27:30.002Z,61.38
2017-08-07T21:29:58.665Z,61.98
2017-08-07T21:32:27.027Z,62.25
2017-08-07T21:34:55.394Z,61.73
2017-08-07T21:37:24.091Z,61.34
2017-08-07T21:39:52.445Z,61.65
2017-08-07T21:42:20.827Z,62.29
2017-08-07T21:44:49.864Z,62.07
2017-08-07T21:47:18.238Z,62.37
2017-08-07T21:49:46.629Z,62.74
2017-08-07T21:52:15.290Z,62.80
2017-08-07T21:54:43.692Z,62.90
2017-08-07T21:57:12.091Z,62.53
2017-08-07T21:59:40.851Z,62.76
2017-08-07T22:02:09.272Z,62.76
2017-08-07T22:04:37.624Z,62.24
2017-08-07T22:07:06.702Z,63.04
2017-08-07T22:09:35.064Z,63.05
2017-08-07T22:12:03.465Z,63.52
2017-08-07T22:14:32.117Z,63.83
2017-08-07T22:17:00.534Z,64.18
2017-08-07T22:19:28.926Z,64.56
2017-08-07T22:21:57.782Z,64.75
2017-08-07T22:24:26.178Z,65.25
2017-08-07T22:26:54.548Z,65.86
2017-08-07T22:29:23.429Z,65.46
2017-08-07T22:31:51.818Z,65.30
2017-08-07T22:34:20.181Z,65.79
2017-08-07T22:36:48.906Z,65.96
2017-08-07T22:39:17.292Z,65.67
2017-08-07T22:41:45.656Z,65.17
2017-08-07T22:44:14.539Z,65.72
2017-08-07T22:46:42.948Z,65.50
2017-08-07T22:49:11.346Z,65.02
2017-08-07T22:51:41.225Z,65.06
2017-08-07T22:54:09.595Z,65.56
2017-08-07T22:56:38.017Z,64.63
2017-08-07T22:59:06.756Z,64.79
2017-08-07T23:01:35.133Z,64.03
2017-08-07T23:04:03.488Z,63.17
2017-08-07T23:06:32.167Z,63.85
2017-08-07T23:09:00.544Z,64.96
2017-08-07T23:11:28.892Z,64.06
2017-08-07T23:13:57.764Z,63.21
2017-08-07T23:16:26.169Z,63.47
2017-08-07T23:18:54.539Z,62.76
2017-08-07T23:21:23.219Z,64.20
2017-08-07T23:23:51.587Z,63.88
2017-08-07T23:26:19.961Z,63.83
2017-08-07T23:28:48.842Z,63.30
2017-08-07T23:31:17.202Z,63.58
2017-08-07T23:33:45.582Z,63.83
2017-08-07T23:36:14.292Z,63.46
2017-08-07T23:38:42.661Z,64.12
2017-08-07T23:41:11.012Z,64.16
2017-08-07T23:43:39.735Z,62.77
2017-08-07T23:46:08.148Z,62.35
2017-08-07T23:48:36.608Z,62.26
2017-08-07T23:51:05.379Z,63.03
2017-08-07T23:53:33.768Z,63.52
2017-08-07T23:56:02.216Z,63.05
2017-08-07T23:58:31.111Z,63.24
